KGYR/GYR METAR and TAF weather

Enter ICAO airport designator
Station Type Date Time Source
KGYR METAR 2019/04/19 03:47 UTC NOAA

KGYR 190347Z 21005KT 10SM SCT250 25/06 A2997 RMK LAST


Station Type Date Time Source
KGYR Decoded METAR 2019/04/19 03:47 UTC NOAA

Goodyear Municipal, AZ, United States (KGYR) 33-25N 112-23W
Apr 18, 2019 - 11:47 PM EDT / 2019.04.19 0347 UTC
Wind: from the SSW (210 degrees) at 6 MPH (5 KT):0
Visibility: 10 mile(s):0
Sky conditions: partly cloudy
Temperature: 77 F (25 C)
Dew Point: 42 F (6 C)
Relative Humidity: 29%
Pressure (altimeter): 29.97 in. Hg (1014 hPa)
ob: KGYR 190347Z 21005KT 10SM SCT250 25/06 A2997 RMK LAST
cycle: 4

Station Type Date Time Source
KGYR TAF UTC NOAA

Error!

Example: see airport list